Terminal Aerodrome Forecast
Issued by NWS Twin Cities, MN

Home | Current Version | Previous Version | Graphics & Text | Print | Product List | Glossary On
Versions: 1 2 3 4 5 6 7 8 9 10 11 12 13 14 15 16 17
817
FTUS43 KMPX 032109 AAA
TAFEAU
TAF AMD
KEAU 032109Z 0321/0418 31013KT P6SM BKN025
     FM032300 31010KT P6SM FEW025
     FM040200 28005KT P6SM BKN150
     FM040900 22004KT P6SM BKN090
     FM041400 19005KT 6SM -SN BR OVC025
      TEMPO 0415/0418 3SM -SN BR OVC015=

USA.gov is the U.S. government's official web portal to all federal, state and local government web resources and services.